LFPB/LBG METAR and TAF weather

Enter ICAO airport designator
Station Type Date Time Source
LFPB METAR 2020/01/23 06:00 UTC NOAA

LFPB 230600Z AUTO 02006KT 6000 SCT007 M01/M02 Q1031 TEMPO 0600 FZFG OVC002


Station Type Date Time Source
LFPB Decoded METAR 2020/01/23 06:00 UTC NOAA

Paris / Le Bourget, France (LFPB) 48-58N 002-27E 65M
Jan 23, 2020 - 01:00 AM EST / 2020.01.23 0600 UTC
Wind: from the NNE (020 degrees) at 7 MPH (6 KT):0
Visibility: 3 mile(s):0
Sky conditions: partly cloudy
Temperature: 30 F (-1 C)
Windchill: 23 F (-5 C):1
Dew Point: 28 F (-2 C)
Relative Humidity: 92%
Pressure (altimeter): 30.45 in. Hg (1031 hPa)
ob: LFPB 230600Z AUTO 02006KT 6000 SCT007 M01/M02 Q1031 TEMPO 0600 FZFG OVC002
cycle: 6

Station Type Date Time Source
LFPB TAF 2020/01/23 06:21 UTC NOAA

TAF LFPB 230500Z 2306/2406 03010KT 5000 BR NSC
BECMG 2306/2307 2000 BR OVC003 PROB30 2306/2308 0600 FZFG OVC002
BECMG 2311/2313 6000 NSW SCT010
TEMPO 2316/2319 BKN008
BECMG 2319/2321 2000 BR BKN003
TEMPO 2321/2406 0500 FG VV///

Example: see airport list